Latest Weather Observations for Cabramurra

IDN60801

Issued at 5:03 am EST Monday 2 May 2016 (issued every 30 minutes, with the page automatically refreshed every 10 minutes)

About weather observations | Map of weather stations | Latest weather observations for NSW | Other Formats
Station Details ID: 072161 Name: CABRAMURRA SMHEA AWS Lat: -35.94 Lon: 148.38 Height: 1482.4 m
Data from the previous 72 hours. | See also: Recent months at Cabramurra
Date/Time
EST
Temp
°C
App
Temp
°C
Dew
Point
Rel
Hum
%
Delta-T
°C
Wind Press
QNH
hPa
Press
MSL
hPa
Rain
since 9 am
mm
Dir
 
Spd
km/h
Gust
km/h
Spd
kts
Gust
kts
02/05:00am 0.8 -4.9 0.7 99 0.0 W 20 30 11 16 - - -
02/04:30am 1.1 -5.3 1.0 99 0.0 W 24 37 13 20 - - 0.6
02/04:00am 1.4 -4.9 1.3 99 0.0 W 24 37 13 20 - - 0.6
02/03:30am 1.4 -4.9 1.3 99 0.0 W 24 39 13 21 - - 0.6
02/03:00am 1.5 -5.2 1.4 99 0.0 W 26 37 14 20 - - 0.6
02/02:30am 1.5 -4.8 1.4 99 0.0 W 24 33 13 18 - - 0.6
02/02:00am 1.6 -5.1 1.5 99 0.0 W 26 41 14 22 - - 0.6
02/01:30am 1.7 -5.0 1.6 99 0.0 W 26 37 14 20 - - 0.6
02/01:06am 1.7 -5.4 1.6 99 0.0 W 28 46 15 25 - - 0.6
02/01:00am 1.9 -4.7 1.8 99 0.0 W 26 41 14 22 - - 0.6
02/12:30am 2.0 -5.8 1.9 99 0.0 W 32 50 17 27 - - 0.6
02/12:00am 2.1 -5.7 2.0 99 0.0 W 32 50 17 27 - - 0.6
 
Date/Time
EST
Temp
°C
App
Temp
°C
Dew
Point
Rel
Hum
%
Delta-T
°C
Wind Press
QNH
hPa
Press
MSL
hPa
Rain
since 9 am
mm
Dir
 
Spd
km/h
Gust
km/h
Spd
kts
Gust
kts
01/11:30pm 2.0 -5.8 1.9 99 0.0 W 32 54 17 29 - - 0.6
01/11:26pm 2.1 -4.9 2.0 99 0.0 W 28 54 15 29 - - 0.6
01/11:00pm 2.4 -5.3 2.3 99 0.0 WNW 32 43 17 23 - - 0.6
01/10:30pm 2.4 -5.3 2.3 99 0.0 WNW 32 44 17 24 - - 0.6
01/10:12pm 2.4 -5.3 2.3 99 0.0 W 32 50 17 27 - - 0.6
01/10:00pm 2.4 -5.3 2.3 99 0.0 WNW 32 44 17 24 - - 0.6
01/09:30pm 2.7 -4.9 2.6 99 0.0 WNW 32 52 17 28 - - 0.6
01/09:02pm 2.9 -4.0 2.8 99 0.0 W 28 46 15 25 - - 0.6
01/09:00pm 2.9 -4.7 2.8 99 0.0 WNW 32 46 17 25 - - 0.6
01/08:30pm 3.0 -5.2 2.9 99 0.0 W 35 54 19 29 - - 0.6
01/08:19pm 3.2 -4.9 3.1 99 0.0 W 35 54 19 29 - - 0.6
01/08:00pm 3.2 -6.1 3.1 99 0.0 WNW 41 57 22 31 - - 0.6
01/07:31pm 3.4 -5.5 3.3 99 0.0 WNW 39 59 21 32 - - 0.6
01/07:30pm 3.4 -5.5 3.3 99 0.0 WNW 39 56 21 30 - - 0.6
01/07:00pm 3.6 -5.2 3.5 99 0.0 WNW 39 59 21 32 - - 0.6
01/06:42pm 3.8 -3.8 3.7 99 0.0 WNW 33 54 18 29 - - 0.6
01/06:30pm 3.8 -3.9 3.5 98 0.1 WNW 33 46 18 25 - - 0.6
01/06:01pm 4.1 -3.1 3.1 93 0.4 NW 30 50 16 27 - - 0.6
01/06:00pm 4.1 -3.1 3.1 93 0.4 NW 30 46 16 25 - - 0.6
01/05:34pm 4.2 -3.0 3.0 92 0.5 WNW 30 50 16 27 - - 0.6
01/05:30pm 4.2 -2.6 2.9 91 0.6 WNW 28 39 15 21 - - 0.6
01/05:00pm 4.4 -2.4 3.1 91 0.6 WNW 28 46 15 25 - - 0.6
01/04:30pm 4.6 -3.6 2.5 86 0.9 WNW 35 54 19 29 - - 0.6
01/04:00pm 5.0 -2.8 2.7 85 1.0 WNW 33 57 18 31 - - 0.6
01/03:30pm 5.2 -2.5 2.4 82 1.3 WNW 32 56 17 30 - - 0.6
01/03:00pm 5.4 -4.0 2.2 80 1.4 WNW 41 65 22 35 - - 0.6
01/02:32pm 5.6 -3.1 4.1 90 0.7 WNW 39 57 21 31 - - 0.6
01/02:30pm 5.7 -3.0 4.2 90 0.7 WNW 39 56 21 30 - - 0.6
01/02:00pm 5.7 -3.6 5.1 96 0.3 W 43 72 23 39 - - 0.6
01/01:38pm 5.9 -5.3 5.8 99 0.0 WNW 54 87 29 47 - - 0.6
01/01:30pm 6.0 -3.3 5.9 99 0.0 WNW 44 69 24 37 - - 0.6
01/01:00pm 5.8 -3.3 5.8 100 0.0 WNW 43 72 23 39 - - 0.6
01/12:30pm 6.2 -1.7 6.1 99 0.0 WNW 37 61 20 33 - - 0.6
01/12:00pm 6.5 -4.6 6.4 99 0.0 WNW 54 76 29 41 - - 0.6
01/11:30am 6.1 -3.2 6.1 100 0.0 WNW 44 80 24 43 - - 0.4
01/11:00am 6.3 -2.3 6.3 100 0.0 WNW 41 67 22 36 - - 0.4
01/10:30am 7.4 -0.2 7.4 100 0.0 WNW 37 61 20 33 - - 0.2
01/10:03am 7.1 0.3 7.1 100 0.0 WNW 32 50 17 27 - - 0.2
01/10:00am 7.2 0.3 7.2 100 0.0 WNW 33 50 18 27 - - 0.2
01/09:30am 7.3 0.0 7.3 100 0.0 WNW 35 57 19 31 - - 0.2
01/09:05am 7.7 -2.0 7.7 100 0.0 WNW 48 89 26 48 - - 0.2
01/09:04am 7.7 -2.0 7.7 100 0.0 WNW 48 89 26 48 - - 0.2
01/09:00am 7.7 -1.2 7.7 100 0.0 WNW 44 89 24 48 - - 13.6
01/08:59am 7.8 -0.9 7.8 100 0.0 W 43 85 23 46 - - 13.6
01/08:30am 9.1 2.3 9.1 100 0.0 WNW 35 63 19 34 - - 11.0
01/08:02am 9.4 3.2 9.4 100 0.0 WNW 32 65 17 35 - - 9.8
01/08:00am 9.4 3.0 9.4 100 0.0 WNW 33 65 18 35 - - 9.8
01/07:30am 9.4 -0.6 9.4 100 0.0 WNW 52 85 28 46 - - 9.8
01/07:25am 9.5 0.3 9.5 100 0.0 WNW 48 85 26 46 - - 9.6
01/07:08am 9.7 0.9 9.7 100 0.0 NW 46 87 25 47 - - 8.6
01/07:00am 9.7 3.0 9.7 100 0.0 NW 35 63 19 34 - - 8.0
01/06:46am 9.6 2.1 9.6 100 0.0 NW 39 59 21 32 - - 7.8
01/06:45am 9.7 2.3 9.7 100 0.0 NW 39 59 21 32 - - 7.6
01/06:30am 9.7 1.9 9.7 100 0.0 NNW 41 67 22 36 - - 6.2
01/06:00am 9.7 1.5 9.7 100 0.0 NNW 43 69 23 37 - - 6.0
01/05:30am 9.7 3.0 9.7 100 0.0 N 35 56 19 30 - - 6.0
01/05:00am 10.2 4.0 10.2 100 0.0 NNW 33 52 18 28 - - 6.0
01/04:34am 10.6 4.5 10.6 100 0.0 NNW 33 61 18 33 - - 5.6
01/04:30am 10.7 4.9 10.7 100 0.0 NNW 32 46 17 25 - - 5.0
01/04:22am 10.8 5.8 10.8 100 0.0 NNW 28 46 15 25 - - 2.0
01/04:00am 10.8 5.0 10.8 100 0.0 NNW 32 44 17 24 - - 0.8
01/03:30am 10.6 4.7 10.6 100 0.0 N 32 44 17 24 - - 0.8
01/03:00am 10.3 4.7 10.3 100 0.0 N 30 46 16 25 - - 0.8
01/02:30am 10.3 5.1 10.3 100 0.0 NNW 28 43 15 23 - - 0.8
01/02:00am 10.2 5.4 10.2 100 0.0 NNW 26 41 14 22 - - 0.8
01/01:30am 10.3 5.9 10.3 100 0.0 N 24 44 13 24 - - 0.8
01/01:00am 10.1 5.6 10.1 100 0.0 N 24 35 13 19 - - 0.8
01/12:30am 9.9 6.1 9.9 100 0.0 NNW 20 32 11 17 - - 0.8
01/12:00am 9.7 5.9 9.7 100 0.0 NNW 20 33 11 18 - - 0.8
 
Date/Time
EST
Temp
°C
App
Temp
°C
Dew
Point
Rel
Hum
%
Delta-T
°C
Wind Press
QNH
hPa
Press
MSL
hPa
Rain
since 9 am
mm
Dir
 
Spd
km/h
Gust
km/h
Spd
kts
Gust
kts
30/11:30pm 9.6 5.4 9.6 100 0.0 NNW 22 30 12 16 - - 0.8
30/11:00pm 9.6 5.4 9.6 100 0.0 NNW 22 32 12 17 - - 0.8
30/10:30pm 10.2 6.1 10.2 100 0.0 NNW 22 30 12 16 - - 0.8
30/10:00pm 10.3 5.9 10.3 100 0.0 NNW 24 35 13 19 - - 0.8
30/09:30pm 10.4 6.0 10.4 100 0.0 NNW 24 33 13 18 - - 0.8
30/09:00pm 10.2 5.7 10.2 100 0.0 NNW 24 33 13 18 - - 0.8
30/08:30pm 10.5 6.1 10.5 100 0.0 NNW 24 33 13 18 - - 0.8
30/08:00pm 10.3 6.8 10.3 100 0.0 NNW 19 28 10 15 - - 0.8
30/07:30pm 10.5 6.9 10.5 100 0.0 NNW 20 30 11 16 - - 0.8
30/07:00pm 10.6 7.2 10.6 100 0.0 NNW 19 24 10 13 - - 0.8
30/06:30pm 10.8 7.5 10.8 100 0.0 NNW 19 24 10 13 - - 0.8
30/06:00pm 10.7 8.5 10.7 100 0.0 NW 13 19 7 10 - - 0.8
30/05:30pm 10.8 8.2 10.8 100 0.0 NW 15 20 8 11 - - 0.8
30/05:00pm 10.9 8.0 10.9 100 0.0 NW 17 24 9 13 - - 0.8
30/04:30pm 11.0 8.1 11.0 100 0.0 NW 17 24 9 13 - - 0.8
30/04:00pm 11.2 9.1 11.2 100 0.0 WNW 13 20 7 11 - - 0.8
30/03:30pm 11.1 8.6 11.1 100 0.0 WNW 15 24 8 13 - - 0.8
30/03:00pm 11.1 9.0 11.1 100 0.0 WNW 13 19 7 10 - - 0.8
30/02:30pm 11.1 8.2 11.1 100 0.0 WNW 17 22 9 12 - - 0.8
30/02:00pm 10.8 7.8 10.8 100 0.0 WNW 17 24 9 13 - - 0.8
30/01:30pm 10.6 7.6 10.6 100 0.0 WNW 17 24 9 13 - - 0.8
30/01:00pm 10.7 7.7 10.7 100 0.0 WNW 17 26 9 14 - - 0.8
30/12:30pm 10.8 7.8 10.8 100 0.0 WNW 17 26 9 14 - - 0.6
30/12:00pm 10.9 7.4 10.9 100 0.0 WNW 20 28 11 15 - - 0.6
30/11:30am 10.9 7.6 10.9 100 0.0 WNW 19 30 10 16 - - 0.6
30/11:00am 10.6 7.2 10.6 100 0.0 NNW 19 26 10 14 - - 0.6
30/10:30am 10.7 7.3 10.7 100 0.0 WNW 19 26 10 14 - - 0.6
30/10:00am 10.7 7.7 10.7 100 0.0 NW 17 26 9 14 - - 0.2
30/09:30am 10.7 7.3 10.7 100 0.0 NNW 19 24 10 13 - - 0.0
30/09:00am 10.6 7.0 10.6 100 0.0 NNW 20 32 11 17 - - 2.4
30/08:30am 10.4 7.0 10.4 100 0.0 NNW 19 28 10 15 - - 2.4
30/08:00am 10.3 7.2 10.3 100 0.0 NW 17 24 9 13 - - 2.4
30/07:30am 10.1 6.9 10.1 100 0.0 WNW 17 26 9 14 - - 2.4
30/07:00am 10.0 6.8 10.0 100 0.0 NW 17 24 9 13 - - 2.4
30/06:30am 10.0 7.6 10.0 100 0.0 NW 13 19 7 10 - - 2.4
30/06:00am 9.9 6.7 9.9 100 0.0 NW 17 22 9 12 - - 2.2
30/05:30am 9.9 7.1 9.9 100 0.0 NW 15 20 8 11 - - 2.2
30/05:00am 9.9 6.3 9.9 100 0.0 NW 19 28 10 15 - - 2.2
30/04:30am 9.9 6.3 9.9 100 0.0 NW 19 32 10 17 - - 2.2
30/04:00am 9.9 6.3 9.9 100 0.0 WNW 19 26 10 14 - - 2.2
30/03:30am 9.8 5.6 9.8 100 0.0 WNW 22 28 12 15 - - 1.8
30/03:00am 9.7 5.1 9.7 100 0.0 WNW 24 35 13 19 - - 1.8
30/02:30am 9.8 5.2 9.8 100 0.0 NW 24 35 13 19 - - 1.8
30/02:00am 9.9 5.0 9.9 100 0.0 NW 26 37 14 20 - - 1.8
30/01:30am 10.0 5.5 10.0 100 0.0 NW 24 37 13 20 - - 1.8
30/01:00am 10.0 5.5 10.0 100 0.0 NW 24 35 13 19 - - 1.8
30/12:41am 10.0 4.7 10.0 100 0.0 NW 28 46 15 25 - - 1.8
30/12:30am 10.0 5.9 10.0 100 0.0 NW 22 35 12 19 - - 1.8
30/12:00am 10.0 5.5 10.0 100 0.0 NW 24 33 13 18 - - 1.8
 
Date/Time
EST
Temp
°C
App
Temp
°C
Dew
Point
Rel
Hum
%
Delta-T
°C
Wind Press
QNH
hPa
Press
MSL
hPa
Rain
since 9 am
mm
Dir
 
Spd
km/h
Gust
km/h
Spd
kts
Gust
kts
29/11:30pm 10.0 5.5 10.0 100 0.0 NNW 24 32 13 17 - - 1.8
29/11:00pm 10.0 5.5 10.0 100 0.0 NNW 24 35 13 19 - - 1.8
29/10:30pm 9.9 4.6 9.9 100 0.0 NW 28 43 15 23 - - 1.8
29/10:24pm 9.9 4.2 9.9 100 0.0 NNW 30 48 16 26 - - 1.8
29/10:00pm 9.9 4.6 9.9 100 0.0 NNW 28 41 15 22 - - 1.8
29/09:30pm 10.0 5.1 10.0 100 0.0 NNW 26 35 14 19 - - 1.8
29/09:00pm 10.1 4.5 10.1 100 0.0 NNW 30 37 16 20 - - 1.8
29/08:30pm 10.0 5.1 10.0 100 0.0 N 26 37 14 20 - - 1.8
29/08:00pm 9.9 5.0 9.9 100 0.0 N 26 39 14 21 - - 1.8
29/07:30pm 9.9 5.7 9.8 99 0.1 NNW 22 35 12 19 - - 1.8
29/07:00pm 10.0 6.2 9.9 99 0.1 NNW 20 32 11 17 - - 1.6
29/06:30pm 10.0 6.2 9.9 99 0.1 NW 20 30 11 16 - - 0.4
29/06:00pm 9.9 6.3 9.8 99 0.1 NW 19 26 10 14 - - 0.4
29/05:30pm 10.1 6.4 10.0 99 0.1 NW 20 30 11 16 - - 0.2
29/05:00pm 10.1 6.0 10.0 99 0.1 WNW 22 33 12 18 - - 0.0
29/04:30pm 10.6 5.3 9.7 94 0.5 WNW 28 37 15 20 - - 0.0
29/04:00pm 11.5 5.5 8.7 83 1.5 WNW 30 43 16 23 - - 0.0
29/03:30pm 13.1 7.6 7.5 69 3.0 NNW 26 39 14 21 - - 0.0
29/03:00pm 13.4 9.0 7.4 67 3.2 NNW 20 33 11 18 - - 0.0
29/02:30pm 14.1 8.9 7.4 64 3.6 NNW 24 39 13 21 - - 0.0
29/02:00pm 13.3 8.4 6.9 65 3.4 N 22 37 12 20 - - 0.0
29/01:30pm 14.2 8.3 7.3 63 3.7 NNW 28 39 15 21 - - 0.0
29/01:00pm 14.5 9.0 7.5 63 3.7 N 26 35 14 19 - - 0.0
29/12:30pm 13.9 8.0 6.0 59 4.1 N 26 39 14 21 - - 0.0
29/12:00pm 14.2 8.9 7.0 62 3.8 N 24 35 13 19 - - 0.0
29/11:30am 13.8 8.6 7.3 65 3.4 N 24 37 13 20 - - 0.0
29/11:00am 12.6 7.3 6.9 68 3.0 N 24 35 13 19 - - 0.0
29/10:30am 12.0 7.5 6.9 71 2.7 N 20 32 11 17 - - 0.0
29/10:00am 12.6 8.3 7.1 69 2.9 NNW 19 30 10 16 - - 0.0
29/09:30am 11.9 7.6 7.8 76 2.2 N 20 32 11 17 - - 0.0
29/09:00am 11.3 7.1 7.6 78 1.9 N 19 30 10 16 - - 0.0
29/08:30am 11.0 6.3 7.9 81 1.6 N 22 32 12 17 - - 0.0
29/08:00am 11.0 6.3 7.9 81 1.6 N 22 32 12 17 - - 0.0
29/07:30am 10.8 6.2 8.0 83 1.5 NNW 22 33 12 18 - - 0.0
29/07:00am 11.1 6.1 8.1 82 1.6 NNW 24 35 13 19 - - 0.0
29/06:30am 11.2 6.3 8.4 83 1.5 NNW 24 33 13 18 - - 0.0
29/06:00am 10.9 6.7 8.3 84 1.4 NNW 20 32 11 17 - - 0.0
29/05:30am 11.0 6.8 8.4 84 1.4 NNW 20 30 11 16 - - 0.0

Other Formats:

Comma delimited format used in spreadsheet applications
http://www.bom.gov.au/fwo/IDN60801/IDN60801.95916.axf

JavaScript Object Notation format (JSON) in row-major order
http://www.bom.gov.au/fwo/IDN60801/IDN60801.95916.json